sensor_id;sensor_type;location;lat;lon;timestamp;P1;durP1;ratioP1;P2;durP2;ratioP2
26594;SDS011;14238;49.496;8.154;2023-12-04T00:00:35;25.83;;;19.70;;
26594;SDS011;14238;49.496;8.154;2023-12-04T00:03:01;26.77;;;18.70;;
26594;SDS011;14238;49.496;8.154;2023-12-04T00:05:26;22.23;;;18.20;;
26594;SDS011;14238;49.496;8.154;2023-12-04T00:07:52;23.13;;;18.30;;
26594;SDS011;14238;49.496;8.154;2023-12-04T00:10:18;20.73;;;17.40;;
26594;SDS011;14238;49.496;8.154;2023-12-04T00:12:43;26.43;;;19.30;;
26594;SDS011;14238;49.496;8.154;2023-12-04T00:15:09;24.13;;;18.77;;
26594;SDS011;14238;49.496;8.154;2023-12-04T00:17:35;24.33;;;18.40;;
26594;SDS011;14238;49.496;8.154;2023-12-04T00:20:04;24.97;;;18.47;;
26594;SDS011;14238;49.496;8.154;2023-12-04T00:22:34;24.40;;;18.50;;
26594;SDS011;14238;49.496;8.154;2023-12-04T00:25:00;25.00;;;18.93;;
26594;SDS011;14238;49.496;8.154;2023-12-04T00:27:28;26.83;;;19.80;;
26594;SDS011;14238;49.496;8.154;2023-12-04T00:29:54;23.67;;;19.03;;
26594;SDS011;14238;49.496;8.154;2023-12-04T00:32:19;24.13;;;19.03;;
26594;SDS011;14238;49.496;8.154;2023-12-04T00:34:45;23.93;;;18.27;;
26594;SDS011;14238;49.496;8.154;2023-12-04T00:37:10;22.93;;;18.53;;
26594;SDS011;14238;49.496;8.154;2023-12-04T00:39:36;24.07;;;18.30;;
26594;SDS011;14238;49.496;8.154;2023-12-04T00:42:02;25.10;;;19.30;;
26594;SDS011;14238;49.496;8.154;2023-12-04T00:44:28;25.57;;;19.63;;
26594;SDS011;14238;49.496;8.154;2023-12-04T00:46:53;21.33;;;19.03;;
26594;SDS011;14238;49.496;8.154;2023-12-04T00:49:19;25.30;;;19.47;;
26594;SDS011;14238;49.496;8.154;2023-12-04T00:51:44;24.37;;;19.67;;
26594;SDS011;14238;49.496;8.154;2023-12-04T00:54:10;25.57;;;18.90;;
26594;SDS011;14238;49.496;8.154;2023-12-04T00:56:39;27.20;;;20.27;;
26594;SDS011;14238;49.496;8.154;2023-12-04T00:59:06;23.97;;;19.23;;
26594;SDS011;14238;49.496;8.154;2023-12-04T01:01:37;25.73;;;21.27;;
26594;SDS011;14238;49.496;8.154;2023-12-04T01:04:03;26.30;;;21.20;;
26594;SDS011;14238;49.496;8.154;2023-12-04T01:06:29;26.30;;;20.97;;
26594;SDS011;14238;49.496;8.154;2023-12-04T01:08:54;30.70;;;21.33;;
26594;SDS011;14238;49.496;8.154;2023-12-04T01:11:20;26.80;;;21.57;;
26594;SDS011;14238;49.496;8.154;2023-12-04T01:13:47;28.27;;;23.43;;
26594;SDS011;14238;49.496;8.154;2023-12-04T01:16:13;29.93;;;22.17;;
26594;SDS011;14238;49.496;8.154;2023-12-04T01:18:39;28.30;;;21.93;;
26594;SDS011;14238;49.496;8.154;2023-12-04T01:21:06;29.73;;;22.27;;
26594;SDS011;14238;49.496;8.154;2023-12-04T01:23:33;26.03;;;20.63;;
26594;SDS011;14238;49.496;8.154;2023-12-04T01:25:59;27.37;;;21.90;;
26594;SDS011;14238;49.496;8.154;2023-12-04T01:28:26;25.77;;;21.43;;
26594;SDS011;14238;49.496;8.154;2023-12-04T01:30:51;24.63;;;20.70;;
26594;SDS011;14238;49.496;8.154;2023-12-04T01:33:17;24.33;;;20.87;;
26594;SDS011;14238;49.496;8.154;2023-12-04T01:35:42;25.33;;;20.73;;
26594;SDS011;14238;49.496;8.154;2023-12-04T01:38:08;24.90;;;18.70;;
26594;SDS011;14238;49.496;8.154;2023-12-04T01:40:33;26.90;;;21.77;;
26594;SDS011;14238;49.496;8.154;2023-12-04T01:42:59;24.97;;;19.60;;
26594;SDS011;14238;49.496;8.154;2023-12-04T01:45:24;24.83;;;20.50;;
26594;SDS011;14238;49.496;8.154;2023-12-04T01:47:50;27.33;;;21.57;;
26594;SDS011;14238;49.496;8.154;2023-12-04T01:50:16;30.20;;;21.87;;
26594;SDS011;14238;49.496;8.154;2023-12-04T01:52:42;25.50;;;20.23;;
26594;SDS011;14238;49.496;8.154;2023-12-04T01:55:08;24.13;;;18.87;;
26594;SDS011;14238;49.496;8.154;2023-12-04T01:57:35;24.00;;;19.83;;
26594;SDS011;14238;49.496;8.154;2023-12-04T02:00:00;23.67;;;19.43;;
26594;SDS011;14238;49.496;8.154;2023-12-04T02:02:29;23.57;;;18.43;;
26594;SDS011;14238;49.496;8.154;2023-12-04T02:04:55;23.67;;;18.53;;
26594;SDS011;14238;49.496;8.154;2023-12-04T02:07:23;27.37;;;20.00;;
26594;SDS011;14238;49.496;8.154;2023-12-04T02:09:48;25.90;;;19.80;;
26594;SDS011;14238;49.496;8.154;2023-12-04T02:12:14;24.70;;;20.20;;
26594;SDS011;14238;49.496;8.154;2023-12-04T02:14:40;24.53;;;20.20;;
26594;SDS011;14238;49.496;8.154;2023-12-04T02:17:06;25.60;;;19.37;;
26594;SDS011;14238;49.496;8.154;2023-12-04T02:19:33;28.50;;;19.57;;
26594;SDS011;14238;49.496;8.154;2023-12-04T02:21:59;23.37;;;18.33;;
26594;SDS011;14238;49.496;8.154;2023-12-04T02:24:25;22.00;;;18.10;;
26594;SDS011;14238;49.496;8.154;2023-12-04T02:26:53;23.10;;;19.30;;
26594;SDS011;14238;49.496;8.154;2023-12-04T02:29:31;23.83;;;19.73;;
26594;SDS011;14238;49.496;8.154;2023-12-04T02:32:02;23.80;;;18.70;;
26594;SDS011;14238;49.496;8.154;2023-12-04T02:34:30;26.20;;;20.23;;
26594;SDS011;14238;49.496;8.154;2023-12-04T02:36:58;23.90;;;18.63;;
26594;SDS011;14238;49.496;8.154;2023-12-04T02:39:25;25.13;;;19.47;;
26594;SDS011;14238;49.496;8.154;2023-12-04T02:41:52;24.93;;;19.30;;
26594;SDS011;14238;49.496;8.154;2023-12-04T02:44:17;22.60;;;18.33;;
26594;SDS011;14238;49.496;8.154;2023-12-04T02:46:43;24.90;;;18.37;;
26594;SDS011;14238;49.496;8.154;2023-12-04T02:49:08;24.00;;;19.33;;
26594;SDS011;14238;49.496;8.154;2023-12-04T02:51:34;24.90;;;19.70;;
26594;SDS011;14238;49.496;8.154;2023-12-04T02:53:59;24.90;;;17.80;;
26594;SDS011;14238;49.496;8.154;2023-12-04T02:56:25;25.00;;;19.43;;
26594;SDS011;14238;49.496;8.154;2023-12-04T02:58:50;24.90;;;17.80;;
26594;SDS011;14238;49.496;8.154;2023-12-04T03:01:16;25.73;;;19.03;;
26594;SDS011;14238;49.496;8.154;2023-12-04T03:03:41;24.20;;;19.10;;
26594;SDS011;14238;49.496;8.154;2023-12-04T03:06:07;23.27;;;18.13;;
26594;SDS011;14238;49.496;8.154;2023-12-04T03:08:32;24.77;;;19.00;;
26594;SDS011;14238;49.496;8.154;2023-12-04T03:10:58;21.47;;;16.87;;
26594;SDS011;14238;49.496;8.154;2023-12-04T03:13:23;25.00;;;19.43;;
26594;SDS011;14238;49.496;8.154;2023-12-04T03:15:49;20.90;;;16.97;;
26594;SDS011;14238;49.496;8.154;2023-12-04T03:18:14;21.23;;;16.87;;
26594;SDS011;14238;49.496;8.154;2023-12-04T03:20:40;24.53;;;17.73;;
26594;SDS011;14238;49.496;8.154;2023-12-04T03:23:05;24.50;;;18.73;;
26594;SDS011;14238;49.496;8.154;2023-12-04T03:25:31;25.23;;;17.70;;
26594;SDS011;14238;49.496;8.154;2023-12-04T03:27:57;28.70;;;18.77;;
26594;SDS011;14238;49.496;8.154;2023-12-04T03:30:22;22.77;;;18.20;;
26594;SDS011;14238;49.496;8.154;2023-12-04T03:32:48;22.93;;;18.03;;
26594;SDS011;14238;49.496;8.154;2023-12-04T03:35:13;23.20;;;17.80;;
26594;SDS011;14238;49.496;8.154;2023-12-04T03:37:39;22.67;;;17.53;;
26594;SDS011;14238;49.496;8.154;2023-12-04T03:40:05;24.47;;;16.90;;
26594;SDS011;14238;49.496;8.154;2023-12-04T03:42:31;25.00;;;18.17;;
26594;SDS011;14238;49.496;8.154;2023-12-04T03:44:56;26.70;;;18.10;;
26594;SDS011;14238;49.496;8.154;2023-12-04T03:47:22;22.07;;;16.50;;
26594;SDS011;14238;49.496;8.154;2023-12-04T03:49:48;24.23;;;17.30;;
26594;SDS011;14238;49.496;8.154;2023-12-04T03:52:14;24.47;;;16.50;;
26594;SDS011;14238;49.496;8.154;2023-12-04T03:54:39;19.73;;;15.67;;
26594;SDS011;14238;49.496;8.154;2023-12-04T03:57:05;24.00;;;17.80;;
26594;SDS011;14238;49.496;8.154;2023-12-04T03:59:30;19.30;;;16.30;;
26594;SDS011;14238;49.496;8.154;2023-12-04T04:01:56;24.60;;;18.40;;
26594;SDS011;14238;49.496;8.154;2023-12-04T04:04:21;28.57;;;18.10;;
26594;SDS011;14238;49.496;8.154;2023-12-04T04:06:47;21.23;;;16.87;;
26594;SDS011;14238;49.496;8.154;2023-12-04T04:09:12;18.87;;;15.70;;
26594;SDS011;14238;49.496;8.154;2023-12-04T04:11:38;20.37;;;15.97;;
26594;SDS011;14238;49.496;8.154;2023-12-04T04:14:03;22.60;;;17.40;;
26594;SDS011;14238;49.496;8.154;2023-12-04T04:16:29;21.13;;;16.07;;
26594;SDS011;14238;49.496;8.154;2023-12-04T04:18:55;20.03;;;15.60;;
26594;SDS011;14238;49.496;8.154;2023-12-04T04:21:20;23.07;;;16.23;;
26594;SDS011;14238;49.496;8.154;2023-12-04T04:23:46;23.00;;;16.57;;
26594;SDS011;14238;49.496;8.154;2023-12-04T04:26:11;20.17;;;15.60;;
26594;SDS011;14238;49.496;8.154;2023-12-04T04:28:37;21.60;;;16.10;;
26594;SDS011;14238;49.496;8.154;2023-12-04T04:31:02;21.10;;;15.23;;
26594;SDS011;14238;49.496;8.154;2023-12-04T04:33:28;17.87;;;14.97;;
26594;SDS011;14238;49.496;8.154;2023-12-04T04:35:53;18.40;;;15.07;;
26594;SDS011;14238;49.496;8.154;2023-12-04T04:38:19;20.37;;;15.30;;
26594;SDS011;14238;49.496;8.154;2023-12-04T04:40:45;21.20;;;14.93;;
26594;SDS011;14238;49.496;8.154;2023-12-04T04:43:10;20.97;;;15.03;;
26594;SDS011;14238;49.496;8.154;2023-12-04T04:45:36;20.67;;;15.77;;
26594;SDS011;14238;49.496;8.154;2023-12-04T04:48:01;20.50;;;15.27;;
26594;SDS011;14238;49.496;8.154;2023-12-04T04:50:27;22.53;;;15.60;;
26594;SDS011;14238;49.496;8.154;2023-12-04T04:52:52;17.53;;;14.00;;
26594;SDS011;14238;49.496;8.154;2023-12-04T04:55:18;21.17;;;15.50;;
26594;SDS011;14238;49.496;8.154;2023-12-04T04:57:43;18.50;;;14.23;;
26594;SDS011;14238;49.496;8.154;2023-12-04T05:00:09;20.93;;;17.90;;
26594;SDS011;14238;49.496;8.154;2023-12-04T05:02:36;19.00;;;15.50;;
26594;SDS011;14238;49.496;8.154;2023-12-04T05:05:02;53.40;;;32.03;;
26594;SDS011;14238;49.496;8.154;2023-12-04T05:07:29;42.37;;;27.70;;
26594;SDS011;14238;49.496;8.154;2023-12-04T05:09:54;24.70;;;18.23;;
26594;SDS011;14238;49.496;8.154;2023-12-04T05:12:20;23.53;;;17.93;;
26594;SDS011;14238;49.496;8.154;2023-12-04T05:14:45;31.27;;;21.90;;
26594;SDS011;14238;49.496;8.154;2023-12-04T05:17:11;25.07;;;19.17;;
26594;SDS011;14238;49.496;8.154;2023-12-04T05:19:36;22.53;;;17.90;;
26594;SDS011;14238;49.496;8.154;2023-12-04T05:22:02;22.70;;;19.37;;
26594;SDS011;14238;49.496;8.154;2023-12-04T05:24:28;21.83;;;18.13;;
26594;SDS011;14238;49.496;8.154;2023-12-04T05:26:53;18.13;;;14.77;;
26594;SDS011;14238;49.496;8.154;2023-12-04T05:29:19;20.87;;;17.20;;
26594;SDS011;14238;49.496;8.154;2023-12-04T05:31:46;17.43;;;14.97;;
26594;SDS011;14238;49.496;8.154;2023-12-04T05:34:12;21.53;;;14.23;;
26594;SDS011;14238;49.496;8.154;2023-12-04T05:36:37;21.37;;;17.43;;
26594;SDS011;14238;49.496;8.154;2023-12-04T05:39:03;22.97;;;16.70;;
26594;SDS011;14238;49.496;8.154;2023-12-04T05:41:29;22.93;;;16.67;;
26594;SDS011;14238;49.496;8.154;2023-12-04T05:43:55;22.87;;;16.30;;
26594;SDS011;14238;49.496;8.154;2023-12-04T05:46:21;20.50;;;16.13;;
26594;SDS011;14238;49.496;8.154;2023-12-04T05:48:47;28.27;;;16.77;;
26594;SDS011;14238;49.496;8.154;2023-12-04T05:51:12;25.70;;;17.97;;
26594;SDS011;14238;49.496;8.154;2023-12-04T05:53:39;21.87;;;17.00;;
26594;SDS011;14238;49.496;8.154;2023-12-04T05:56:05;26.70;;;17.20;;
26594;SDS011;14238;49.496;8.154;2023-12-04T05:58:31;23.80;;;16.70;;
26594;SDS011;14238;49.496;8.154;2023-12-04T06:00:57;21.17;;;16.10;;
26594;SDS011;14238;49.496;8.154;2023-12-04T06:03:22;21.00;;;15.77;;
26594;SDS011;14238;49.496;8.154;2023-12-04T06:05:48;25.60;;;18.33;;
26594;SDS011;14238;49.496;8.154;2023-12-04T06:08:13;36.70;;;24.17;;
26594;SDS011;14238;49.496;8.154;2023-12-04T06:10:39;48.53;;;30.03;;
26594;SDS011;14238;49.496;8.154;2023-12-04T06:13:05;27.73;;;19.63;;
26594;SDS011;14238;49.496;8.154;2023-12-04T06:15:30;21.23;;;16.40;;
26594;SDS011;14238;49.496;8.154;2023-12-04T06:17:56;20.83;;;16.50;;
26594;SDS011;14238;49.496;8.154;2023-12-04T06:20:21;19.73;;;16.60;;
26594;SDS011;14238;49.496;8.154;2023-12-04T06:22:47;21.90;;;17.10;;
26594;SDS011;14238;49.496;8.154;2023-12-04T06:25:13;19.50;;;15.40;;
26594;SDS011;14238;49.496;8.154;2023-12-04T06:27:39;19.23;;;14.97;;
26594;SDS011;14238;49.496;8.154;2023-12-04T06:30:05;18.00;;;15.50;;
26594;SDS011;14238;49.496;8.154;2023-12-04T06:32:32;19.00;;;15.33;;
26594;SDS011;14238;49.496;8.154;2023-12-04T06:34:57;20.60;;;16.23;;
26594;SDS011;14238;49.496;8.154;2023-12-04T06:37:23;21.73;;;16.30;;
26594;SDS011;14238;49.496;8.154;2023-12-04T06:39:49;20.83;;;16.13;;
26594;SDS011;14238;49.496;8.154;2023-12-04T06:42:18;23.47;;;19.13;;
26594;SDS011;14238;49.496;8.154;2023-12-04T06:44:43;21.43;;;18.13;;
26594;SDS011;14238;49.496;8.154;2023-12-04T06:47:09;26.83;;;19.37;;
26594;SDS011;14238;49.496;8.154;2023-12-04T06:49:37;22.77;;;18.37;;
26594;SDS011;14238;49.496;8.154;2023-12-04T06:52:03;23.63;;;19.13;;
26594;SDS011;14238;49.496;8.154;2023-12-04T06:54:29;23.73;;;18.30;;
26594;SDS011;14238;49.496;8.154;2023-12-04T06:56:55;25.33;;;18.10;;
26594;SDS011;14238;49.496;8.154;2023-12-04T06:59:21;22.67;;;18.43;;
26594;SDS011;14238;49.496;8.154;2023-12-04T07:01:46;22.20;;;17.47;;
26594;SDS011;14238;49.496;8.154;2023-12-04T07:04:12;21.60;;;17.17;;
26594;SDS011;14238;49.496;8.154;2023-12-04T07:06:39;22.20;;;17.20;;
26594;SDS011;14238;49.496;8.154;2023-12-04T07:09:04;22.67;;;17.17;;
26594;SDS011;14238;49.496;8.154;2023-12-04T07:11:32;22.23;;;16.40;;
26594;SDS011;14238;49.496;8.154;2023-12-04T07:13:58;19.63;;;16.53;;
26594;SDS011;14238;49.496;8.154;2023-12-04T07:16:24;22.30;;;18.47;;
26594;SDS011;14238;49.496;8.154;2023-12-04T07:18:49;22.70;;;17.17;;
26594;SDS011;14238;49.496;8.154;2023-12-04T07:21:15;22.17;;;16.83;;
26594;SDS011;14238;49.496;8.154;2023-12-04T07:23:41;20.50;;;15.60;;
26594;SDS011;14238;49.496;8.154;2023-12-04T07:26:06;21.07;;;17.30;;
26594;SDS011;14238;49.496;8.154;2023-12-04T07:28:32;20.10;;;16.33;;
26594;SDS011;14238;49.496;8.154;2023-12-04T07:30:58;20.43;;;16.50;;
26594;SDS011;14238;49.496;8.154;2023-12-04T07:33:25;23.77;;;16.97;;
26594;SDS011;14238;49.496;8.154;2023-12-04T07:35:51;18.30;;;15.27;;
26594;SDS011;14238;49.496;8.154;2023-12-04T07:38:16;21.17;;;16.37;;
26594;SDS011;14238;49.496;8.154;2023-12-04T07:40:42;21.90;;;16.57;;
26594;SDS011;14238;49.496;8.154;2023-12-04T07:43:08;21.63;;;17.80;;
26594;SDS011;14238;49.496;8.154;2023-12-04T07:45:34;19.13;;;15.57;;
26594;SDS011;14238;49.496;8.154;2023-12-04T07:48:01;21.70;;;16.57;;
26594;SDS011;14238;49.496;8.154;2023-12-04T07:50:28;18.43;;;14.90;;
26594;SDS011;14238;49.496;8.154;2023-12-04T07:52:54;21.00;;;16.33;;
26594;SDS011;14238;49.496;8.154;2023-12-04T07:55:19;22.47;;;16.80;;
26594;SDS011;14238;49.496;8.154;2023-12-04T07:57:45;19.10;;;14.23;;
26594;SDS011;14238;49.496;8.154;2023-12-04T08:00:10;19.63;;;16.20;;
26594;SDS011;14238;49.496;8.154;2023-12-04T08:02:37;18.20;;;15.87;;
26594;SDS011;14238;49.496;8.154;2023-12-04T08:05:02;20.13;;;16.13;;
26594;SDS011;14238;49.496;8.154;2023-12-04T08:07:28;21.40;;;16.57;;
26594;SDS011;14238;49.496;8.154;2023-12-04T08:09:54;19.30;;;15.70;;
26594;SDS011;14238;49.496;8.154;2023-12-04T08:12:19;20.40;;;18.27;;
26594;SDS011;14238;49.496;8.154;2023-12-04T08:14:45;20.97;;;18.47;;
26594;SDS011;14238;49.496;8.154;2023-12-04T08:17:11;20.10;;;15.33;;
26594;SDS011;14238;49.496;8.154;2023-12-04T08:19:37;17.60;;;15.30;;
26594;SDS011;14238;49.496;8.154;2023-12-04T08:38:34;18.23;;;14.57;;
26594;SDS011;14238;49.496;8.154;2023-12-04T08:41:00;17.70;;;15.50;;
26594;SDS011;14238;49.496;8.154;2023-12-04T08:43:25;18.40;;;14.33;;
26594;SDS011;14238;49.496;8.154;2023-12-04T08:45:51;19.33;;;14.57;;
26594;SDS011;14238;49.496;8.154;2023-12-04T08:48:16;15.10;;;13.23;;
26594;SDS011;14238;49.496;8.154;2023-12-04T08:50:42;17.30;;;13.53;;
26594;SDS011;14238;49.496;8.154;2023-12-04T08:53:07;15.07;;;12.97;;
26594;SDS011;14238;49.496;8.154;2023-12-04T08:55:33;16.63;;;13.53;;
26594;SDS011;14238;49.496;8.154;2023-12-04T08:57:58;16.43;;;13.90;;
26594;SDS011;14238;49.496;8.154;2023-12-04T09:00:24;15.40;;;13.37;;
26594;SDS011;14238;49.496;8.154;2023-12-04T09:02:49;16.17;;;12.90;;
26594;SDS011;14238;49.496;8.154;2023-12-04T09:05:15;20.37;;;14.20;;
26594;SDS011;14238;49.496;8.154;2023-12-04T09:07:41;18.27;;;14.57;;
26594;SDS011;14238;49.496;8.154;2023-12-04T09:10:06;15.57;;;12.40;;
26594;SDS011;14238;49.496;8.154;2023-12-04T09:12:32;17.33;;;13.90;;
26594;SDS011;14238;49.496;8.154;2023-12-04T09:15:00;22.07;;;15.23;;
26594;SDS011;14238;49.496;8.154;2023-12-04T09:17:26;20.13;;;14.73;;
26594;SDS011;14238;49.496;8.154;2023-12-04T09:19:52;18.90;;;13.83;;
26594;SDS011;14238;49.496;8.154;2023-12-04T09:22:18;16.30;;;12.10;;
26594;SDS011;14238;49.496;8.154;2023-12-04T09:24:43;15.03;;;12.10;;
26594;SDS011;14238;49.496;8.154;2023-12-04T09:27:09;15.37;;;11.57;;
26594;SDS011;14238;49.496;8.154;2023-12-04T09:29:35;13.53;;;12.13;;
26594;SDS011;14238;49.496;8.154;2023-12-04T09:32:00;15.97;;;11.77;;
26594;SDS011;14238;49.496;8.154;2023-12-04T09:34:26;15.30;;;11.83;;
26594;SDS011;14238;49.496;8.154;2023-12-04T09:36:52;13.00;;;10.87;;
26594;SDS011;14238;49.496;8.154;2023-12-04T09:39:17;12.83;;;11.27;;
26594;SDS011;14238;49.496;8.154;2023-12-04T09:41:43;13.27;;;11.80;;
26594;SDS011;14238;49.496;8.154;2023-12-04T09:44:10;13.50;;;11.40;;
26594;SDS011;14238;49.496;8.154;2023-12-04T09:46:36;16.63;;;14.10;;
26594;SDS011;14238;49.496;8.154;2023-12-04T09:49:02;14.10;;;12.60;;
26594;SDS011;14238;49.496;8.154;2023-12-04T09:51:29;12.23;;;10.87;;
26594;SDS011;14238;49.496;8.154;2023-12-04T09:53:56;13.93;;;11.87;;
26594;SDS011;14238;49.496;8.154;2023-12-04T09:56:24;12.33;;;11.03;;
26594;SDS011;14238;49.496;8.154;2023-12-04T09:58:52;12.97;;;11.67;;
26594;SDS011;14238;49.496;8.154;2023-12-04T10:01:28;12.77;;;11.37;;
26594;SDS011;14238;49.496;8.154;2023-12-04T10:03:58;11.13;;;10.00;;
26594;SDS011;14238;49.496;8.154;2023-12-04T10:06:26;13.90;;;10.87;;
26594;SDS011;14238;49.496;8.154;2023-12-04T10:08:53;12.67;;;11.37;;
26594;SDS011;14238;49.496;8.154;2023-12-04T10:11:20;11.73;;;9.73;;
26594;SDS011;14238;49.496;8.154;2023-12-04T10:13:45;12.67;;;11.13;;
26594;SDS011;14238;49.496;8.154;2023-12-04T10:16:11;12.90;;;10.67;;
26594;SDS011;14238;49.496;8.154;2023-12-04T10:18:36;15.70;;;11.40;;
26594;SDS011;14238;49.496;8.154;2023-12-04T10:21:02;12.43;;;10.30;;
26594;SDS011;14238;49.496;8.154;2023-12-04T10:23:40;12.80;;;10.97;;
26594;SDS011;14238;49.496;8.154;2023-12-04T10:26:07;13.87;;;11.37;;
26594;SDS011;14238;49.496;8.154;2023-12-04T10:28:33;12.53;;;10.60;;
26594;SDS011;14238;49.496;8.154;2023-12-04T10:31:02;14.00;;;12.30;;
26594;SDS011;14238;49.496;8.154;2023-12-04T10:33:30;13.97;;;12.33;;
26594;SDS011;14238;49.496;8.154;2023-12-04T10:35:56;13.27;;;11.83;;
26594;SDS011;14238;49.496;8.154;2023-12-04T10:38:22;14.70;;;12.30;;
26594;SDS011;14238;49.496;8.154;2023-12-04T10:40:48;15.50;;;12.30;;
26594;SDS011;14238;49.496;8.154;2023-12-04T10:43:20;13.80;;;12.17;;
26594;SDS011;14238;49.496;8.154;2023-12-04T10:45:47;14.97;;;12.17;;
26594;SDS011;14238;49.496;8.154;2023-12-04T10:48:14;16.47;;;13.13;;
26594;SDS011;14238;49.496;8.154;2023-12-04T10:50:41;14.70;;;12.50;;
26594;SDS011;14238;49.496;8.154;2023-12-04T10:53:09;15.93;;;12.90;;
26594;SDS011;14238;49.496;8.154;2023-12-04T10:55:36;19.70;;;13.90;;
26594;SDS011;14238;49.496;8.154;2023-12-04T10:58:04;15.27;;;12.50;;
26594;SDS011;14238;49.496;8.154;2023-12-04T11:00:39;13.87;;;12.10;;
26594;SDS011;14238;49.496;8.154;2023-12-04T11:03:13;16.67;;;13.60;;
26594;SDS011;14238;49.496;8.154;2023-12-04T11:05:45;17.90;;;14.27;;
26594;SDS011;14238;49.496;8.154;2023-12-04T11:08:16;15.67;;;13.40;;
26594;SDS011;14238;49.496;8.154;2023-12-04T11:13:41;15.43;;;12.53;;
26594;SDS011;14238;49.496;8.154;2023-12-04T11:16:18;17.17;;;13.60;;
26594;SDS011;14238;49.496;8.154;2023-12-04T11:19:00;17.90;;;14.50;;
26594;SDS011;14238;49.496;8.154;2023-12-04T11:21:31;17.23;;;14.47;;
26594;SDS011;14238;49.496;8.154;2023-12-04T11:23:57;16.03;;;13.70;;
26594;SDS011;14238;49.496;8.154;2023-12-04T11:26:24;18.70;;;16.23;;
26594;SDS011;14238;49.496;8.154;2023-12-04T11:28:50;17.20;;;14.80;;
26594;SDS011;14238;49.496;8.154;2023-12-04T11:31:17;18.87;;;14.67;;
26594;SDS011;14238;49.496;8.154;2023-12-04T11:33:43;18.70;;;15.10;;
26594;SDS011;14238;49.496;8.154;2023-12-04T11:36:09;19.97;;;16.30;;
26594;SDS011;14238;49.496;8.154;2023-12-04T11:38:43;18.60;;;16.17;;
26594;SDS011;14238;49.496;8.154;2023-12-04T11:41:14;20.90;;;18.73;;
26594;SDS011;14238;49.496;8.154;2023-12-04T11:43:42;20.03;;;16.20;;
26594;SDS011;14238;49.496;8.154;2023-12-04T11:46:08;17.50;;;15.73;;
26594;SDS011;14238;49.496;8.154;2023-12-04T11:48:37;17.60;;;15.70;;
26594;SDS011;14238;49.496;8.154;2023-12-04T11:51:05;23.60;;;18.60;;
26594;SDS011;14238;49.496;8.154;2023-12-04T11:53:32;20.90;;;17.80;;
26594;SDS011;14238;49.496;8.154;2023-12-04T11:56:08;21.00;;;16.87;;
26594;SDS011;14238;49.496;8.154;2023-12-04T11:58:41;18.40;;;15.17;;
26594;SDS011;14238;49.496;8.154;2023-12-04T12:01:07;21.40;;;17.03;;
26594;SDS011;14238;49.496;8.154;2023-12-04T12:03:33;17.20;;;14.80;;
26594;SDS011;14238;49.496;8.154;2023-12-04T12:05:59;17.90;;;16.00;;
26594;SDS011;14238;49.496;8.154;2023-12-04T12:08:25;21.57;;;17.30;;
26594;SDS011;14238;49.496;8.154;2023-12-04T12:10:53;20.90;;;17.97;;
26594;SDS011;14238;49.496;8.154;2023-12-04T12:13:20;20.90;;;18.73;;
26594;SDS011;14238;49.496;8.154;2023-12-04T12:15:48;20.47;;;18.03;;
26594;SDS011;14238;49.496;8.154;2023-12-04T12:18:16;22.40;;;18.00;;
26594;SDS011;14238;49.496;8.154;2023-12-04T12:20:41;24.17;;;17.67;;
26594;SDS011;14238;49.496;8.154;2023-12-04T12:23:07;21.57;;;17.47;;
26594;SDS011;14238;49.496;8.154;2023-12-04T12:25:34;19.33;;;16.90;;
26594;SDS011;14238;49.496;8.154;2023-12-04T12:28:03;24.23;;;17.80;;
26594;SDS011;14238;49.496;8.154;2023-12-04T12:30:29;22.03;;;17.43;;
26594;SDS011;14238;49.496;8.154;2023-12-04T12:32:55;23.90;;;17.70;;
26594;SDS011;14238;49.496;8.154;2023-12-04T12:35:20;21.90;;;17.37;;
26594;SDS011;14238;49.496;8.154;2023-12-04T12:37:46;21.67;;;17.63;;
26594;SDS011;14238;49.496;8.154;2023-12-04T12:40:11;22.60;;;17.50;;
26594;SDS011;14238;49.496;8.154;2023-12-04T12:42:37;22.40;;;18.30;;
26594;SDS011;14238;49.496;8.154;2023-12-04T12:45:06;23.80;;;17.80;;
26594;SDS011;14238;49.496;8.154;2023-12-04T12:47:35;21.73;;;17.33;;
26594;SDS011;14238;49.496;8.154;2023-12-04T12:50:01;19.90;;;15.90;;
26594;SDS011;14238;49.496;8.154;2023-12-04T12:52:27;21.53;;;17.60;;
26594;SDS011;14238;49.496;8.154;2023-12-04T12:54:54;19.33;;;16.30;;
26594;SDS011;14238;49.496;8.154;2023-12-04T12:57:19;20.50;;;18.30;;
26594;SDS011;14238;49.496;8.154;2023-12-04T12:59:45;19.40;;;15.30;;
26594;SDS011;14238;49.496;8.154;2023-12-04T13:02:10;17.20;;;15.07;;
26594;SDS011;14238;49.496;8.154;2023-12-04T13:04:36;18.63;;;14.90;;
26594;SDS011;14238;49.496;8.154;2023-12-04T13:07:03;18.80;;;14.03;;
26594;SDS011;14238;49.496;8.154;2023-12-04T13:09:30;18.70;;;15.33;;
26594;SDS011;14238;49.496;8.154;2023-12-04T13:11:56;16.50;;;14.37;;
26594;SDS011;14238;49.496;8.154;2023-12-04T13:14:21;17.97;;;15.33;;
26594;SDS011;14238;49.496;8.154;2023-12-04T13:16:47;17.97;;;15.40;;
26594;SDS011;14238;49.496;8.154;2023-12-04T13:19:13;20.20;;;16.30;;
26594;SDS011;14238;49.496;8.154;2023-12-04T13:21:38;17.83;;;14.27;;
26594;SDS011;14238;49.496;8.154;2023-12-04T13:24:04;16.87;;;15.10;;
26594;SDS011;14238;49.496;8.154;2023-12-04T13:26:32;13.23;;;11.83;;
26594;SDS011;14238;49.496;8.154;2023-12-04T13:28:58;18.73;;;14.93;;
26594;SDS011;14238;49.496;8.154;2023-12-04T13:31:24;17.10;;;13.03;;
26594;SDS011;14238;49.496;8.154;2023-12-04T13:33:50;20.70;;;16.00;;
26594;SDS011;14238;49.496;8.154;2023-12-04T13:36:15;18.30;;;13.70;;
26594;SDS011;14238;49.496;8.154;2023-12-04T13:38:41;17.20;;;14.00;;
26594;SDS011;14238;49.496;8.154;2023-12-04T13:41:06;20.33;;;16.27;;
26594;SDS011;14238;49.496;8.154;2023-12-04T13:43:50;17.30;;;14.23;;
26594;SDS011;14238;49.496;8.154;2023-12-04T13:46:16;18.20;;;14.40;;
26594;SDS011;14238;49.496;8.154;2023-12-04T13:48:41;21.03;;;15.00;;
26594;SDS011;14238;49.496;8.154;2023-12-04T13:51:10;19.53;;;14.07;;
26594;SDS011;14238;49.496;8.154;2023-12-04T13:53:37;17.77;;;14.37;;
26594;SDS011;14238;49.496;8.154;2023-12-04T13:56:05;20.63;;;17.20;;
26594;SDS011;14238;49.496;8.154;2023-12-04T13:58:46;18.57;;;14.97;;
26594;SDS011;14238;49.496;8.154;2023-12-04T14:01:21;16.67;;;14.63;;
26594;SDS011;14238;49.496;8.154;2023-12-04T14:03:53;17.60;;;14.80;;
26594;SDS011;14238;49.496;8.154;2023-12-04T14:06:21;18.53;;;15.60;;
26594;SDS011;14238;49.496;8.154;2023-12-04T14:08:46;20.00;;;14.60;;
26594;SDS011;14238;49.496;8.154;2023-12-04T14:11:12;18.30;;;15.40;;
26594;SDS011;14238;49.496;8.154;2023-12-04T14:13:39;19.30;;;15.87;;
26594;SDS011;14238;49.496;8.154;2023-12-04T14:16:05;17.10;;;14.30;;
26594;SDS011;14238;49.496;8.154;2023-12-04T14:18:31;18.47;;;16.00;;
26594;SDS011;14238;49.496;8.154;2023-12-04T14:20:59;19.97;;;16.13;;
26594;SDS011;14238;49.496;8.154;2023-12-04T14:23:24;18.10;;;16.13;;
26594;SDS011;14238;49.496;8.154;2023-12-04T14:25:50;22.30;;;17.07;;
26594;SDS011;14238;49.496;8.154;2023-12-04T14:28:16;19.00;;;16.57;;
26594;SDS011;14238;49.496;8.154;2023-12-04T14:30:41;27.73;;;19.50;;
26594;SDS011;14238;49.496;8.154;2023-12-04T14:33:07;26.20;;;19.57;;
26594;SDS011;14238;49.496;8.154;2023-12-04T14:35:34;23.63;;;17.53;;